Jump to content

Yngve J.Steien

Members
  • Content Count

    114
  • Joined

  • Last visited

Community Reputation

0 Neutral

About Yngve J.Steien

  • Birthday 10/09/1950
  1. Har reinstallert FSX med SP1 og Accelleration.Flyter bedre nå enn tidligere. Noen bilder fra i dag. Flesland i sikte.
  2. Takk for kommentar. Jeg bruker Ultimate Traffic.Kan jeg gjøre noe der for å endre dette eller er det afcad fila som må endres?
  3. En liten tur Flesland - Sola. :grin:
  4. Dagens tur gikk fra EGLL til ENGM med PMDG 747-400. Over nordsjøen et sted. On final RW19R Gate 50.
  5. På vei fra Heathrow(EGLL) til El Prat(LEBL).Tekst over bildene. Over Pyreneene. On final Rw25. Ved gate. Ha en god dag.
  6. ENGM Rw 19R. Fly & panel fra filbiblioteket her. Kom gjerne med kommentarer. Beklager rød tekst,prøvde å beskjære bildene og lagre dem,men det gikk ikke helt etter planen.
  7. ESSA 010920Z 03010KT 4000 -SNRA OVC003 01/00 Q1031 01290166 08290165 51290170 TEMPO 5000
  8. Flyet er PIC 373-400. NAP,Ground Env.Pro,Lago mesh,ASv6. Bilder tatt med Screen Shot Maker. Kom gjerne med kommentarer. Godt Nytt År til alle simmere
  9. Ground Environment Pro er også innstallert.
  10. Fly:Cessna Stationair 6(Carenado) Scenery:Tongass Fjords Mesh:Global 2008 Skagway i det fjerne. Håper disse kan glede noen. God Jul til samtlige.
  11. The movie Bruk speilet flittig!
×
×
  • Create New...